PWSweather.com
Personal Weather Stations
Station Observations
MASSAPEQUA
Massapequa, NY 11758

Massapequa, NY 11758

Lat: 40.66033, Lon: -73.46828

Elevation: 3

Station Type: Oregon Scientific WMR-968

http://www.massapequanyweather.com

High Low Average
Temperature 63.9°F17.7°C 55.2°F12.9°C 58.5°F14.7°C
Dew Point 51.3°F10.7°C 37.1°F2.8°C 43.1°F6.2°C
Winds 10.0 mph 16.1 kmh 2.0 mph 3.2 kmh 7.0 mph SE11.3 kmh SE
Wind Gusts 17.0 mph27.4 kmh 3.0 mph4.8 kmh 10.0 mph16.1 kmh
Humidity 77% 47% 57%
Pressure 30.10 in1019.3 mb 29.87 in1011.5 mb -
Precipitation 0.00 in0.0 mm - -
Hour Temp Dew Point Humidity Winds Wind Gusts Pressure Precip Precip Rate Daily Precip Total
12:00 AM 55.2°F12.9°C 37.9°F3.3°C 52% 2.0 mph SE3.2 kmh SE 5.0 mph8.0 kmh 30.10 in1019.3 mb 0.00 in0.0 mm 0.00 in/hr0.0 mm/hr 0.00 in0.0 mm
12:15 AM 55.2°F12.9°C 37.9°F3.3°C 52% 2.0 mph SE3.2 kmh SE 3.0 mph4.8 kmh 30.10 in1019.3 mb 0.00 in0.0 mm 0.00 in/hr0.0 mm/hr 0.00 in0.0 mm
12:30 AM 55.3°F12.9°C 38.0°F3.3°C 52% 3.0 mph SE4.8 kmh SE 5.0 mph8.0 kmh 30.10 in1019.3 mb 0.00 in0.0 mm 0.00 in/hr0.0 mm/hr 0.00 in0.0 mm
12:45 AM 55.2°F12.9°C 37.9°F3.3°C 52% 3.0 mph SSE4.8 kmh SSE 6.0 mph9.7 kmh 30.10 in1019.3 mb 0.00 in0.0 mm 0.00 in/hr0.0 mm/hr 0.00 in0.0 mm
01:00 AM 55.2°F12.9°C 37.4°F3.0°C 51% 3.0 mph SE4.8 kmh SE 7.0 mph11.3 kmh 30.07 in1018.3 mb 0.00 in0.0 mm 0.00 in/hr0.0 mm/hr 0.00 in0.0 mm
01:15 AM 55.2°F12.9°C 37.4°F3.0°C 51% 5.0 mph SSE8.0 kmh SSE 6.0 mph9.7 kmh 30.07 in1018.3 mb 0.00 in0.0 mm 0.00 in/hr0.0 mm/hr 0.00 in0.0 mm
01:30 AM 55.2°F12.9°C 37.4°F3.0°C 51% 5.0 mph SE8.0 kmh SE 6.0 mph9.7 kmh 30.07 in1018.3 mb 0.00 in0.0 mm 0.00 in/hr0.0 mm/hr 0.00 in0.0 mm
01:45 AM 55.2°F12.9°C 37.4°F3.0°C 51% 3.0 mph SSE4.8 kmh SSE 8.0 mph12.9 kmh 30.07 in1018.3 mb 0.00 in0.0 mm 0.00 in/hr0.0 mm/hr 0.00 in0.0 mm
02:00 AM 55.2°F12.9°C 37.4°F3.0°C 51% 6.0 mph SE9.7 kmh SE 8.0 mph12.9 kmh 30.04 in1017.3 mb 0.00 in0.0 mm 0.00 in/hr0.0 mm/hr 0.00 in0.0 mm
02:15 AM 55.4°F13.0°C 37.6°F3.1°C 51% 6.0 mph SE9.7 kmh SE 8.0 mph12.9 kmh 30.04 in1017.3 mb 0.00 in0.0 mm 0.00 in/hr0.0 mm/hr 0.00 in0.0 mm
02:30 AM 55.4°F13.0°C 37.6°F3.1°C 51% 5.0 mph S8.0 kmh S 6.0 mph9.7 kmh 30.04 in1017.3 mb 0.00 in0.0 mm 0.00 in/hr0.0 mm/hr 0.00 in0.0 mm
02:45 AM 55.4°F13.0°C 37.1°F2.8°C 50% 6.0 mph SE9.7 kmh SE 6.0 mph9.7 kmh 30.04 in1017.3 mb 0.00 in0.0 mm 0.00 in/hr0.0 mm/hr 0.00 in0.0 mm
03:00 AM 55.4°F13.0°C 37.1°F2.8°C 50% 3.0 mph SE4.8 kmh SE 3.0 mph4.8 kmh 30.04 in1017.3 mb 0.00 in0.0 mm 0.00 in/hr0.0 mm/hr 0.00 in0.0 mm
03:15 AM 55.4°F13.0°C 37.1°F2.8°C 50% 3.0 mph SE4.8 kmh SE 9.0 mph14.5 kmh 30.04 in1017.3 mb 0.00 in0.0 mm 0.00 in/hr0.0 mm/hr 0.00 in0.0 mm
03:30 AM 55.4°F13.0°C 37.1°F2.8°C 50% 5.0 mph SE8.0 kmh SE 8.0 mph12.9 kmh 30.04 in1017.3 mb 0.00 in0.0 mm 0.00 in/hr0.0 mm/hr 0.00 in0.0 mm
03:45 AM 55.6°F13.1°C 37.2°F2.9°C 50% 5.0 mph SE8.0 kmh SE 8.0 mph12.9 kmh 30.04 in1017.3 mb 0.00 in0.0 mm 0.00 in/hr0.0 mm/hr 0.00 in0.0 mm
04:00 AM 55.6°F13.1°C 37.2°F2.9°C 50% 7.0 mph SE11.3 kmh SE 8.0 mph12.9 kmh 30.01 in1016.3 mb 0.00 in0.0 mm 0.00 in/hr0.0 mm/hr 0.00 in0.0 mm
04:15 AM 55.6°F13.1°C 37.2°F2.9°C 50% 5.0 mph SE8.0 kmh SE 6.0 mph9.7 kmh 30.04 in1017.3 mb 0.00 in0.0 mm 0.00 in/hr0.0 mm/hr 0.00 in0.0 mm
04:30 AM 55.6°F13.1°C 37.2°F2.9°C 50% 6.0 mph SE9.7 kmh SE 9.0 mph14.5 kmh 30.04 in1017.3 mb 0.00 in0.0 mm 0.00 in/hr0.0 mm/hr 0.00 in0.0 mm
04:45 AM 55.6°F13.1°C 37.2°F2.9°C 50% 7.0 mph SE11.3 kmh SE 9.0 mph14.5 kmh 30.04 in1017.3 mb 0.00 in0.0 mm 0.00 in/hr0.0 mm/hr 0.00 in0.0 mm
05:00 AM 55.6°F13.1°C 37.2°F2.9°C 50% 6.0 mph SE9.7 kmh SE 9.0 mph14.5 kmh 30.04 in1017.3 mb 0.00 in0.0 mm 0.00 in/hr0.0 mm/hr 0.00 in0.0 mm
05:15 AM 55.6°F13.1°C 37.2°F2.9°C 50% 6.0 mph ESE9.7 kmh ESE 6.0 mph9.7 kmh 30.04 in1017.3 mb 0.00 in0.0 mm 0.00 in/hr0.0 mm/hr 0.00 in0.0 mm
05:30 AM 55.8°F13.2°C 37.9°F3.3°C 51% 8.0 mph SE12.9 kmh SE 12.0 mph19.3 kmh 30.04 in1017.3 mb 0.00 in0.0 mm 0.00 in/hr0.0 mm/hr 0.00 in0.0 mm
05:45 AM 55.9°F13.3°C 37.6°F3.1°C 50% 6.0 mph SE9.7 kmh SE 8.0 mph12.9 kmh 30.04 in1017.3 mb 0.00 in0.0 mm 0.00 in/hr0.0 mm/hr 0.00 in0.0 mm
06:00 AM 56.3°F13.5°C 37.9°F3.3°C 50% 7.0 mph SE11.3 kmh SE 8.0 mph12.9 kmh 30.04 in1017.3 mb 0.00 in0.0 mm 0.00 in/hr0.0 mm/hr 0.00 in0.0 mm
06:15 AM 56.3°F13.5°C 37.9°F3.3°C 50% 6.0 mph SE9.7 kmh SE 10.0 mph16.1 kmh 30.04 in1017.3 mb 0.00 in0.0 mm 0.00 in/hr0.0 mm/hr 0.00 in0.0 mm
06:30 AM 56.5°F13.6°C 38.1°F3.4°C 50% 8.0 mph SE12.9 kmh SE 9.0 mph14.5 kmh 30.04 in1017.3 mb 0.00 in0.0 mm 0.00 in/hr0.0 mm/hr 0.00 in0.0 mm
06:45 AM 56.5°F13.6°C 38.1°F3.4°C 50% 9.0 mph SE14.5 kmh SE 12.0 mph19.3 kmh 30.04 in1017.3 mb 0.00 in0.0 mm 0.00 in/hr0.0 mm/hr 0.00 in0.0 mm
07:00 AM 56.7°F13.7°C 38.2°F3.4°C 50% 8.0 mph SE12.9 kmh SE 8.0 mph12.9 kmh 30.04 in1017.3 mb 0.00 in0.0 mm 0.00 in/hr0.0 mm/hr 0.00 in0.0 mm
07:15 AM 56.8°F13.8°C 37.9°F3.3°C 49% 8.0 mph SE12.9 kmh SE 12.0 mph19.3 kmh 30.04 in1017.3 mb 0.00 in0.0 mm 0.00 in/hr0.0 mm/hr 0.00 in0.0 mm
07:30 AM 57.0°F13.9°C 38.0°F3.3°C 49% 8.0 mph SSE12.9 kmh SSE 8.0 mph12.9 kmh 30.04 in1017.3 mb 0.00 in0.0 mm 0.00 in/hr0.0 mm/hr 0.00 in0.0 mm
07:45 AM 57.2°F14.0°C 38.2°F3.4°C 49% 6.0 mph SE9.7 kmh SE 12.0 mph19.3 kmh 30.04 in1017.3 mb 0.00 in0.0 mm 0.00 in/hr0.0 mm/hr 0.00 in0.0 mm
08:00 AM 57.9°F14.4°C 38.3°F3.5°C 48% 8.0 mph SE12.9 kmh SE 10.0 mph16.1 kmh 30.01 in1016.3 mb 0.00 in0.0 mm 0.00 in/hr0.0 mm/hr 0.00 in0.0 mm
08:15 AM 58.1°F14.5°C 38.5°F3.6°C 48% 9.0 mph ESE14.5 kmh ESE 12.0 mph19.3 kmh 30.01 in1016.3 mb 0.00 in0.0 mm 0.00 in/hr0.0 mm/hr 0.00 in0.0 mm
08:30 AM 59.2°F15.1°C 39.0°F3.9°C 47% 8.0 mph SE12.9 kmh SE 10.0 mph16.1 kmh 30.01 in1016.3 mb 0.00 in0.0 mm 0.00 in/hr0.0 mm/hr 0.00 in0.0 mm
08:45 AM 59.5°F15.3°C 39.3°F4.1°C 47% 7.0 mph SE11.3 kmh SE 10.0 mph16.1 kmh 30.01 in1016.3 mb 0.00 in0.0 mm 0.00 in/hr0.0 mm/hr 0.00 in0.0 mm
09:00 AM 59.4°F15.2°C 39.1°F3.9°C 47% 9.0 mph SE14.5 kmh SE 17.0 mph27.4 kmh 30.01 in1016.3 mb 0.00 in0.0 mm 0.00 in/hr0.0 mm/hr 0.00 in0.0 mm
09:15 AM 59.7°F15.4°C 39.4°F4.1°C 47% 8.0 mph SE12.9 kmh SE 16.0 mph25.7 kmh 30.01 in1016.3 mb 0.00 in0.0 mm 0.00 in/hr0.0 mm/hr 0.00 in0.0 mm
09:30 AM 59.9°F15.5°C 39.6°F4.2°C 47% 6.0 mph SE9.7 kmh SE 6.0 mph9.7 kmh 30.01 in1016.3 mb 0.00 in0.0 mm 0.00 in/hr0.0 mm/hr 0.00 in0.0 mm
09:45 AM 59.7°F15.4°C 39.4°F4.1°C 47% 7.0 mph SE11.3 kmh SE 10.0 mph16.1 kmh 30.01 in1016.3 mb 0.00 in0.0 mm 0.00 in/hr0.0 mm/hr 0.00 in0.0 mm
10:00 AM 59.9°F15.5°C 47.7°F8.7°C 64% 7.0 mph SE11.3 kmh SE 13.0 mph20.9 kmh 30.01 in1016.3 mb 0.00 in0.0 mm 0.00 in/hr0.0 mm/hr 0.00 in0.0 mm
10:15 AM 60.4°F15.8°C 47.8°F8.8°C 63% 8.0 mph SSE12.9 kmh SSE 8.0 mph12.9 kmh 30.01 in1016.3 mb 0.00 in0.0 mm 0.00 in/hr0.0 mm/hr 0.00 in0.0 mm
10:30 AM 60.3°F15.7°C 47.6°F8.7°C 63% 7.0 mph SSE11.3 kmh SSE 10.0 mph16.1 kmh 29.98 in1015.2 mb 0.00 in0.0 mm 0.00 in/hr0.0 mm/hr 0.00 in0.0 mm
10:45 AM 59.9°F15.5°C 47.7°F8.7°C 64% 8.0 mph SE12.9 kmh SE 14.0 mph22.5 kmh 29.98 in1015.2 mb 0.00 in0.0 mm 0.00 in/hr0.0 mm/hr 0.00 in0.0 mm
11:00 AM 60.0°F15.6°C 48.2°F9.0°C 65% 6.0 mph SE9.7 kmh SE 8.0 mph12.9 kmh 29.98 in1015.2 mb 0.00 in0.0 mm 0.00 in/hr0.0 mm/hr 0.00 in0.0 mm
11:15 AM 60.8°F16.0°C 48.5°F9.2°C 64% 9.0 mph SSE14.5 kmh SSE 13.0 mph20.9 kmh 29.98 in1015.2 mb 0.00 in0.0 mm 0.00 in/hr0.0 mm/hr 0.00 in0.0 mm
11:30 AM 61.0°F16.1°C 48.7°F9.3°C 64% 8.0 mph SE12.9 kmh SE 12.0 mph19.3 kmh 29.98 in1015.2 mb 0.00 in0.0 mm 0.00 in/hr0.0 mm/hr 0.00 in0.0 mm
11:45 AM 61.0°F16.1°C 48.3°F9.1°C 63% 9.0 mph SE14.5 kmh SE 12.0 mph19.3 kmh 29.95 in1014.2 mb 0.00 in0.0 mm 0.00 in/hr0.0 mm/hr 0.00 in0.0 mm
12:00 PM 60.4°F15.8°C 48.6°F9.2°C 65% 7.0 mph SE11.3 kmh SE 10.0 mph16.1 kmh 29.95 in1014.2 mb 0.00 in0.0 mm 0.00 in/hr0.0 mm/hr 0.00 in0.0 mm
12:15 PM 61.3°F16.3°C 49.1°F9.5°C 64% 8.0 mph S12.9 kmh S 10.0 mph16.1 kmh 29.95 in1014.2 mb 0.00 in0.0 mm 0.00 in/hr0.0 mm/hr 0.00 in0.0 mm
12:30 PM 63.0°F17.2°C 49.7°F9.8°C 62% 6.0 mph S9.7 kmh S 13.0 mph20.9 kmh 29.95 in1014.2 mb 0.00 in0.0 mm 0.00 in/hr0.0 mm/hr 0.00 in0.0 mm
12:45 PM 63.0°F17.2°C 49.7°F9.8°C 62% 7.0 mph SSE11.3 kmh SSE 9.0 mph14.5 kmh 29.95 in1014.2 mb 0.00 in0.0 mm 0.00 in/hr0.0 mm/hr 0.00 in0.0 mm
01:00 PM 63.0°F17.2°C 49.7°F9.8°C 62% 7.0 mph SE11.3 kmh SE 15.0 mph24.1 kmh 29.95 in1014.2 mb 0.00 in0.0 mm 0.00 in/hr0.0 mm/hr 0.00 in0.0 mm
01:15 PM 63.9°F17.7°C 50.6°F10.3°C 62% 6.0 mph S9.7 kmh S 10.0 mph16.1 kmh 29.95 in1014.2 mb 0.00 in0.0 mm 0.00 in/hr0.0 mm/hr 0.00 in0.0 mm
01:30 PM 63.2°F17.3°C 49.5°F9.7°C 61% 8.0 mph SE12.9 kmh SE 12.0 mph19.3 kmh 29.95 in1014.2 mb 0.00 in0.0 mm 0.00 in/hr0.0 mm/hr 0.00 in0.0 mm
01:45 PM 62.8°F17.1°C 49.6°F9.8°C 62% 7.0 mph SE11.3 kmh SE 13.0 mph20.9 kmh 29.93 in1013.5 mb 0.00 in0.0 mm 0.00 in/hr0.0 mm/hr 0.00 in0.0 mm
02:00 PM 62.2°F16.8°C 49.5°F9.7°C 63% 8.0 mph SSE12.9 kmh SSE 10.0 mph16.1 kmh 29.93 in1013.5 mb 0.00 in0.0 mm 0.00 in/hr0.0 mm/hr 0.00 in0.0 mm
02:15 PM 61.7°F16.5°C 49.0°F9.4°C 63% 6.0 mph SSE9.7 kmh SSE 10.0 mph16.1 kmh 29.93 in1013.5 mb 0.00 in0.0 mm 0.00 in/hr0.0 mm/hr 0.00 in0.0 mm
02:30 PM 61.2°F16.2°C 48.5°F9.2°C 63% 6.0 mph S9.7 kmh S 9.0 mph14.5 kmh 29.93 in1013.5 mb 0.00 in0.0 mm 0.00 in/hr0.0 mm/hr 0.00 in0.0 mm
02:45 PM 60.8°F16.0°C 48.1°F8.9°C 63% 6.0 mph SSE9.7 kmh SSE 9.0 mph14.5 kmh 29.93 in1013.5 mb 0.00 in0.0 mm 0.00 in/hr0.0 mm/hr 0.00 in0.0 mm
03:00 PM 60.4°F15.8°C 48.6°F9.2°C 65% 8.0 mph SSE12.9 kmh SSE 10.0 mph16.1 kmh 29.93 in1013.5 mb 0.00 in0.0 mm 0.00 in/hr0.0 mm/hr 0.00 in0.0 mm
03:15 PM 60.4°F15.8°C 48.6°F9.2°C 65% 8.0 mph S12.9 kmh S 10.0 mph16.1 kmh 29.93 in1013.5 mb 0.00 in0.0 mm 0.00 in/hr0.0 mm/hr 0.00 in0.0 mm
03:30 PM 60.4°F15.8°C 48.6°F9.2°C 65% 10.0 mph SE16.1 kmh SE 13.0 mph20.9 kmh 29.90 in1012.5 mb 0.00 in0.0 mm 0.00 in/hr0.0 mm/hr 0.00 in0.0 mm
03:45 PM 60.3°F15.7°C 48.9°F9.4°C 66% 8.0 mph SE12.9 kmh SE 14.0 mph22.5 kmh 29.90 in1012.5 mb 0.00 in0.0 mm 0.00 in/hr0.0 mm/hr 0.00 in0.0 mm
04:00 PM 60.6°F15.9°C 48.8°F9.3°C 65% 10.0 mph SSW16.1 kmh SSW 15.0 mph24.1 kmh 29.90 in1012.5 mb 0.00 in0.0 mm 0.00 in/hr0.0 mm/hr 0.00 in0.0 mm
04:15 PM 60.6°F15.9°C 48.8°F9.3°C 65% 7.0 mph SSE11.3 kmh SSE 15.0 mph24.1 kmh 29.90 in1012.5 mb 0.00 in0.0 mm 0.00 in/hr0.0 mm/hr 0.00 in0.0 mm
04:30 PM 60.6°F15.9°C 48.8°F9.3°C 65% 7.0 mph SSW11.3 kmh SSW 9.0 mph14.5 kmh 29.90 in1012.5 mb 0.00 in0.0 mm 0.00 in/hr0.0 mm/hr 0.00 in0.0 mm
04:45 PM 60.4°F15.8°C 48.6°F9.2°C 65% 8.0 mph SSE12.9 kmh SSE 17.0 mph27.4 kmh 29.87 in1011.5 mb 0.00 in0.0 mm 0.00 in/hr0.0 mm/hr 0.00 in0.0 mm
05:00 PM 60.3°F15.7°C 48.9°F9.4°C 66% 8.0 mph SSE12.9 kmh SSE 10.0 mph16.1 kmh 29.87 in1011.5 mb 0.00 in0.0 mm 0.00 in/hr0.0 mm/hr 0.00 in0.0 mm
05:15 PM 60.1°F15.6°C 49.1°F9.5°C 67% 6.0 mph S9.7 kmh S 8.0 mph12.9 kmh 29.87 in1011.5 mb 0.00 in0.0 mm 0.00 in/hr0.0 mm/hr 0.00 in0.0 mm
05:30 PM 59.7°F15.4°C 49.5°F9.7°C 69% 7.0 mph SE11.3 kmh SE 8.0 mph12.9 kmh 29.87 in1011.5 mb 0.00 in0.0 mm 0.00 in/hr0.0 mm/hr 0.00 in0.0 mm
05:45 PM 59.4°F15.2°C 49.6°F9.8°C 70% 6.0 mph SSE9.7 kmh SSE 10.0 mph16.1 kmh 29.87 in1011.5 mb 0.00 in0.0 mm 0.00 in/hr0.0 mm/hr 0.00 in0.0 mm
06:00 PM 58.6°F14.8°C 50.0°F10.0°C 73% 7.0 mph S11.3 kmh S 8.0 mph12.9 kmh 29.87 in1011.5 mb 0.00 in0.0 mm 0.00 in/hr0.0 mm/hr 0.00 in0.0 mm
06:15 PM 58.3°F14.6°C 50.4°F10.2°C 75% 7.0 mph S11.3 kmh S 8.0 mph12.9 kmh 29.87 in1011.5 mb 0.00 in0.0 mm 0.00 in/hr0.0 mm/hr 0.00 in0.0 mm
06:30 PM 58.5°F14.7°C 51.3°F10.7°C 77% 5.0 mph SSE8.0 kmh SSE 10.0 mph16.1 kmh 29.87 in1011.5 mb 0.00 in0.0 mm 0.00 in/hr0.0 mm/hr 0.00 in0.0 mm
06:45 PM 58.5°F14.7°C 50.9°F10.5°C 76% 5.0 mph SE8.0 kmh SE 8.0 mph12.9 kmh 29.87 in1011.5 mb 0.00 in0.0 mm 0.00 in/hr0.0 mm/hr 0.00 in0.0 mm
07:00 PM 58.5°F14.7°C 50.9°F10.5°C 76% 3.0 mph ESE4.8 kmh ESE 6.0 mph9.7 kmh 29.87 in1011.5 mb 0.00 in0.0 mm 0.00 in/hr0.0 mm/hr 0.00 in0.0 mm
07:15 PM 58.5°F14.7°C 51.0°F10.6°C 76% 3.0 mph SW4.8 kmh SW 5.0 mph8.0 kmh 29.87 in1011.5 mb 0.00 in0.0 mm 0.00 in/hr0.0 mm/hr 0.00 in0.0 mm
07:30 PM 58.5°F14.7°C 50.9°F10.5°C 76% 5.0 mph SE8.0 kmh SE 6.0 mph9.7 kmh 29.87 in1011.5 mb 0.04 in1.0 mm 0.16 in/hr4.1 mm/hr 0.04 in1.0 mm
07:45 PM 58.6°F14.8°C 51.1°F10.6°C 76% 3.0 mph SSW4.8 kmh SSW 7.0 mph11.3 kmh 29.87 in1011.5 mb 0.04 in1.0 mm 0.00 in/hr0.0 mm/hr 0.04 in1.0 mm
08:00 PM 58.5°F14.7°C 51.3°F10.7°C 77% 3.0 mph S4.8 kmh S 3.0 mph4.8 kmh 29.87 in1011.5 mb 0.00 in0.0 mm 0.00 in/hr0.0 mm/hr 0.04 in1.0 mm
08:15 PM 58.5°F14.7°C 51.3°F10.7°C 77% 5.0 mph SSE8.0 kmh SSE 6.0 mph9.7 kmh 29.87 in1011.5 mb 0.00 in0.0 mm 0.00 in/hr0.0 mm/hr 0.04 in1.0 mm
08:30 PM 58.3°F14.6°C 51.1°F10.6°C 77% 3.0 mph SW4.8 kmh SW 3.0 mph4.8 kmh 29.90 in1012.5 mb 0.00 in0.0 mm 0.00 in/hr0.0 mm/hr 0.04 in1.0 mm
08:45 PM 58.3°F14.6°C 51.4°F10.8°C 78% 3.0 mph S4.8 kmh S 6.0 mph9.7 kmh 29.90 in1012.5 mb 0.00 in0.0 mm 0.00 in/hr0.0 mm/hr 0.04 in1.0 mm
09:00 PM 58.1°F14.5°C 51.3°F10.7°C 78% 2.0 mph S3.2 kmh S 6.0 mph9.7 kmh 29.87 in1011.5 mb 0.00 in0.0 mm 0.00 in/hr0.0 mm/hr 0.04 in1.0 mm
09:15 PM 57.9°F14.4°C 51.4°F10.8°C 79% 5.0 mph SSE8.0 kmh SSE 6.0 mph9.7 kmh 29.90 in1012.5 mb 0.00 in0.0 mm 0.00 in/hr0.0 mm/hr 0.04 in1.0 mm
09:30 PM 57.9°F14.4°C 52.5°F11.4°C 82% 8.0 mph SE12.9 kmh SE 10.0 mph16.1 kmh 29.87 in1011.5 mb 0.00 in0.0 mm 0.00 in/hr0.0 mm/hr 0.04 in1.0 mm
09:45 PM 58.1°F14.5°C 53.9°F12.2°C 86% 6.0 mph SE9.7 kmh SE 8.0 mph12.9 kmh 29.87 in1011.5 mb 0.00 in0.0 mm 0.00 in/hr0.0 mm/hr 0.04 in1.0 mm
10:00 PM 58.3°F14.6°C 55.7°F13.2°C 91% 6.0 mph SE9.7 kmh SE 7.0 mph11.3 kmh 29.87 in1011.5 mb 0.00 in0.0 mm 0.00 in/hr0.0 mm/hr 0.04 in1.0 mm
10:15 PM 58.3°F14.6°C 56.0°F13.3°C 92% 5.0 mph SSE8.0 kmh SSE 7.0 mph11.3 kmh 29.87 in1011.5 mb 0.00 in0.0 mm 0.00 in/hr0.0 mm/hr 0.04 in1.0 mm
10:30 PM 58.5°F14.7°C 56.1°F13.4°C 92% 3.0 mph S4.8 kmh S 8.0 mph12.9 kmh 29.87 in1011.5 mb 0.00 in0.0 mm 0.00 in/hr0.0 mm/hr 0.04 in1.0 mm
10:45 PM 58.1°F14.5°C 55.5°F13.1°C 91% 5.0 mph SE8.0 kmh SE 7.0 mph11.3 kmh 29.87 in1011.5 mb 0.00 in0.0 mm 0.00 in/hr0.0 mm/hr 0.04 in1.0 mm
11:00 PM 57.9°F14.4°C 55.6°F13.1°C 92% 3.0 mph S4.8 kmh S 5.0 mph8.0 kmh 29.87 in1011.5 mb 0.00 in0.0 mm 0.00 in/hr0.0 mm/hr 0.04 in1.0 mm
11:15 PM 57.9°F14.4°C 55.9°F13.3°C 93% 5.0 mph SSE8.0 kmh SSE 5.0 mph8.0 kmh 29.87 in1011.5 mb 0.04 in1.0 mm 0.16 in/hr4.1 mm/hr 0.04 in1.0 mm
11:30 PM 58.1°F14.5°C 56.4°F13.6°C 94% 3.0 mph S4.8 kmh S 6.0 mph9.7 kmh 29.84 in1010.5 mb 0.00 in0.0 mm 0.00 in/hr0.0 mm/hr 0.04 in1.0 mm
11:45 PM 58.1°F14.5°C 56.7°F13.7°C 95% 2.0 mph S3.2 kmh S 3.0 mph4.8 kmh 29.84 in1010.5 mb 0.00 in0.0 mm 0.00 in/hr0.0 mm/hr 0.04 in1.0 mm